createdAt,value
2023-02-24T00:02:01.660Z,6.13
2023-02-24T00:04:34.214Z,4.65
2023-02-24T00:07:02.471Z,8.23
2023-02-24T00:09:31.063Z,9.15
2023-02-24T00:12:01.066Z,3.33
2023-02-24T00:14:32.207Z,6.17
2023-02-24T00:16:59.129Z,5.78
2023-02-24T00:19:29.028Z,5.07
2023-02-24T00:21:55.786Z,4.38
2023-02-24T00:24:23.067Z,7.95
2023-02-24T00:27:00.957Z,7.55
2023-02-24T00:29:29.573Z,4.57
2023-02-24T00:32:07.132Z,4.97
2023-02-24T00:34:39.869Z,8.03
2023-02-24T00:37:07.004Z,5.20
2023-02-24T00:39:35.666Z,4.43
2023-02-24T00:42:04.922Z,5.22
2023-02-24T00:44:37.146Z,5.93
2023-02-24T00:47:06.677Z,5.30
2023-02-24T00:49:42.153Z,3.63
2023-02-24T00:52:14.992Z,7.72
2023-02-24T00:54:46.191Z,5.25
2023-02-24T00:57:14.282Z,4.85
2023-02-24T00:59:41.067Z,8.07
2023-02-24T01:02:08.326Z,4.40
2023-02-24T01:04:37.490Z,7.47
2023-02-24T01:07:10.899Z,5.63
2023-02-24T01:09:39.428Z,5.93
2023-02-24T01:12:38.073Z,4.90
2023-02-24T01:15:09.251Z,5.20
2023-02-24T01:17:40.407Z,7.72
2023-02-24T01:20:17.088Z,6.57
2023-02-24T01:22:53.266Z,6.57
2023-02-24T01:25:20.589Z,8.85
2023-02-24T01:27:47.661Z,7.37
2023-02-24T01:30:16.505Z,3.83
2023-02-24T01:32:44.577Z,9.20
2023-02-24T01:35:12.098Z,7.18
2023-02-24T01:37:39.327Z,6.13
2023-02-24T01:40:11.919Z,6.95
2023-02-24T01:42:41.795Z,12.82
2023-02-24T01:45:14.832Z,5.57
2023-02-24T01:47:42.544Z,4.13
2023-02-24T01:50:13.786Z,5.78
2023-02-24T01:52:42.524Z,5.80
2023-02-24T01:55:38.966Z,4.00
2023-02-24T01:58:13.955Z,5.97
2023-02-24T02:00:45.634Z,3.03
2023-02-24T02:03:29.663Z,6.50
2023-02-24T02:06:01.668Z,5.68
2023-02-24T02:08:29.382Z,4.72
2023-02-24T02:11:02.876Z,6.68
2023-02-24T02:13:31.239Z,9.30
2023-02-24T02:16:25.006Z,4.57
2023-02-24T02:18:56.140Z,6.33
2023-02-24T02:21:44.612Z,4.03
2023-02-24T02:24:17.182Z,4.70
2023-02-24T02:27:11.567Z,5.60
2023-02-24T02:30:14.095Z,5.72
2023-02-24T02:33:21.887Z,5.93
2023-02-24T02:36:13.459Z,5.95
2023-02-24T02:38:57.474Z,3.50
2023-02-24T02:41:45.836Z,5.88
2023-02-24T02:44:34.204Z,5.45
2023-02-24T02:47:26.758Z,6.63
2023-02-24T02:50:01.211Z,9.32
2023-02-24T02:53:05.819Z,5.53
2023-02-24T02:55:36.267Z,7.05
2023-02-24T02:58:07.836Z,6.07
2023-02-24T03:00:42.074Z,7.00
2023-02-24T03:03:16.255Z,5.90
2023-02-24T03:05:51.791Z,10.27
2023-02-24T03:08:23.865Z,12.25
2023-02-24T03:10:53.525Z,5.15
2023-02-24T03:13:25.573Z,5.78
2023-02-24T03:15:54.795Z,7.07
2023-02-24T03:18:31.935Z,7.78
2023-02-24T03:21:16.833Z,6.32
2023-02-24T03:23:50.770Z,8.07
2023-02-24T03:26:37.198Z,3.70
2023-02-24T03:29:19.249Z,4.55
2023-02-24T03:32:05.258Z,7.25
2023-02-24T03:34:32.430Z,5.40
2023-02-24T03:37:00.018Z,7.63
2023-02-24T03:39:29.434Z,4.90
2023-02-24T03:41:59.161Z,7.25
2023-02-24T03:44:26.236Z,6.88
2023-02-24T03:46:55.707Z,7.40
2023-02-24T03:49:25.459Z,7.05
2023-02-24T03:52:02.989Z,5.53
2023-02-24T03:54:53.920Z,6.17
2023-02-24T03:57:34.743Z,5.55
2023-02-24T04:00:22.835Z,4.38
2023-02-24T04:02:51.701Z,7.95
2023-02-24T04:05:22.457Z,4.88
2023-02-24T04:08:01.525Z,5.95
2023-02-24T04:10:38.203Z,5.45
2023-02-24T04:13:16.925Z,9.55
2023-02-24T04:15:48.351Z,3.55
2023-02-24T04:18:15.552Z,10.02
2023-02-24T04:20:43.740Z,6.75
2023-02-24T04:23:17.174Z,6.88
2023-02-24T04:25:48.277Z,6.72
2023-02-24T04:28:18.854Z,4.57
2023-02-24T04:30:51.186Z,4.95
2023-02-24T04:33:18.860Z,4.00
2023-02-24T04:35:46.631Z,7.05
2023-02-24T04:38:14.082Z,4.72
2023-02-24T04:40:44.791Z,7.50
2023-02-24T04:43:15.354Z,6.30
2023-02-24T04:45:42.539Z,5.38
2023-02-24T04:48:12.925Z,6.60
2023-02-24T04:50:41.838Z,3.97
2023-02-24T04:53:16.457Z,5.10
2023-02-24T04:55:48.575Z,8.13
2023-02-24T04:58:20.224Z,6.57
2023-02-24T05:00:48.878Z,7.30
2023-02-24T05:03:17.438Z,9.20
2023-02-24T05:06:02.709Z,4.35
2023-02-24T05:08:30.671Z,5.47
2023-02-24T05:10:58.690Z,5.20
2023-02-24T05:13:27.940Z,7.68
2023-02-24T05:15:56.082Z,8.80
2023-02-24T05:18:24.017Z,5.72
2023-02-24T05:21:12.050Z,4.60
2023-02-24T05:23:40.951Z,7.82
2023-02-24T05:26:11.399Z,6.15
2023-02-24T05:28:40.473Z,8.45
2023-02-24T05:31:14.855Z,5.03
2023-02-24T05:33:43.308Z,8.93
2023-02-24T05:36:12.458Z,11.38
2023-02-24T05:38:39.973Z,7.22
2023-02-24T05:41:23.117Z,8.00
2023-02-24T05:43:55.413Z,6.07
2023-02-24T05:46:31.817Z,10.55
2023-02-24T05:48:59.884Z,6.20
2023-02-24T05:51:30.374Z,5.25
2023-02-24T05:53:59.466Z,7.28
2023-02-24T05:56:27.323Z,5.37
2023-02-24T05:59:01.931Z,7.07
2023-02-24T06:01:30.413Z,7.00
2023-02-24T06:04:05.577Z,8.00
2023-02-24T06:06:35.126Z,8.65
2023-02-24T06:09:07.873Z,4.13
2023-02-24T06:11:41.465Z,10.23
2023-02-24T06:14:08.966Z,6.97
2023-02-24T06:16:37.440Z,6.85
2023-02-24T06:19:07.496Z,7.63
2023-02-24T06:21:41.233Z,7.00
2023-02-24T06:24:14.464Z,7.50
2023-02-24T06:26:44.727Z,7.03
2023-02-24T06:29:13.398Z,3.78
2023-02-24T06:31:41.906Z,7.17
2023-02-24T06:34:13.998Z,8.02
2023-02-24T06:36:43.057Z,8.75
2023-02-24T06:39:14.565Z,7.65
2023-02-24T06:41:42.768Z,8.43
2023-02-24T06:44:13.803Z,7.13
2023-02-24T06:46:43.342Z,7.63
2023-02-24T06:49:10.414Z,7.78
2023-02-24T06:51:37.540Z,8.23
2023-02-24T06:54:06.110Z,5.35
2023-02-24T06:56:38.393Z,4.55
2023-02-24T06:59:09.242Z,9.10
2023-02-24T07:01:44.976Z,7.47
2023-02-24T07:04:12.841Z,9.15
2023-02-24T07:06:44.148Z,7.18
2023-02-24T07:09:15.934Z,8.38
2023-02-24T07:11:46.912Z,8.35
2023-02-24T07:14:14.457Z,7.28
2023-02-24T07:16:45.148Z,9.90
2023-02-24T07:19:14.300Z,3.40
2023-02-24T07:21:46.541Z,8.88
2023-02-24T07:24:20.217Z,6.17
2023-02-24T07:26:51.667Z,8.48
2023-02-24T07:29:18.528Z,9.02
2023-02-24T07:31:45.449Z,7.00
2023-02-24T07:34:17.306Z,8.25
2023-02-24T07:36:49.340Z,9.60
2023-02-24T07:39:17.429Z,5.63
2023-02-24T07:41:49.420Z,8.80
2023-02-24T07:44:18.647Z,7.90
2023-02-24T07:46:46.449Z,8.43
2023-02-24T07:49:15.041Z,8.17
2023-02-24T07:51:43.097Z,7.75
2023-02-24T07:54:11.484Z,9.20
2023-02-24T07:56:46.000Z,7.23
2023-02-24T07:59:19.297Z,6.70
2023-02-24T08:01:58.431Z,7.18
2023-02-24T08:04:27.550Z,9.50
2023-02-24T08:07:02.384Z,6.70
2023-02-24T08:09:48.155Z,12.57
2023-02-24T08:12:21.500Z,9.32
2023-02-24T08:14:53.360Z,7.82
2023-02-24T08:17:24.644Z,8.45
2023-02-24T08:20:28.687Z,9.55
2023-02-24T08:22:58.593Z,5.75
2023-02-24T08:25:35.904Z,9.32
2023-02-24T08:28:08.466Z,8.40
2023-02-24T08:30:45.678Z,10.25
2023-02-24T08:33:19.590Z,10.20
2023-02-24T08:36:01.283Z,7.93
2023-02-24T08:38:39.723Z,6.57
2023-02-24T08:41:07.632Z,11.65
2023-02-24T08:43:39.491Z,8.20
2023-02-24T08:46:25.467Z,7.43
2023-02-24T08:48:55.788Z,10.00
2023-02-24T08:51:28.641Z,12.82
2023-02-24T08:53:58.348Z,8.13
2023-02-24T08:56:27.785Z,7.90
2023-02-24T08:59:05.566Z,5.60
2023-02-24T09:01:39.183Z,7.50
2023-02-24T09:04:07.448Z,5.88
2023-02-24T09:06:39.497Z,7.32
2023-02-24T09:09:19.303Z,6.47
2023-02-24T09:11:47.222Z,9.40
2023-02-24T09:14:27.241Z,8.37
2023-02-24T09:17:11.919Z,9.00
2023-02-24T09:19:47.972Z,6.80
2023-02-24T09:22:34.587Z,8.20
2023-02-24T09:25:18.681Z,6.70
2023-02-24T09:27:48.121Z,11.83
2023-02-24T09:30:34.869Z,7.28
2023-02-24T09:33:22.408Z,7.97
2023-02-24T09:35:49.523Z,7.45
2023-02-24T09:38:19.785Z,8.07
2023-02-24T09:40:54.362Z,6.55
2023-02-24T09:43:30.198Z,8.35
2023-02-24T09:46:14.886Z,6.43
2023-02-24T09:49:17.439Z,6.68
2023-02-24T09:51:45.344Z,6.05
2023-02-24T09:54:18.281Z,9.80
2023-02-24T09:57:08.496Z,5.78
2023-02-24T10:00:21.387Z,8.48
2023-02-24T10:03:19.546Z,6.13
2023-02-24T10:06:20.895Z,6.30
2023-02-24T10:08:55.018Z,8.25
2023-02-24T10:11:34.910Z,7.03
2023-02-24T10:14:05.416Z,5.97
2023-02-24T10:16:44.703Z,8.63
2023-02-24T10:19:30.528Z,8.23
2023-02-24T10:22:05.667Z,6.65
2023-02-24T10:24:47.202Z,8.48
2023-02-24T10:27:30.063Z,9.27
2023-02-24T10:30:27.984Z,9.48
2023-02-24T10:32:59.269Z,6.97
2023-02-24T10:35:33.653Z,7.13
2023-02-24T10:38:06.256Z,8.07
2023-02-24T10:40:56.853Z,9.18
2023-02-24T10:43:33.467Z,7.53
2023-02-24T10:46:17.517Z,7.90
2023-02-24T10:48:51.432Z,7.40
2023-02-24T10:51:22.152Z,13.30
2023-02-24T10:54:09.872Z,6.88
2023-02-24T10:56:55.154Z,10.75
2023-02-24T10:59:24.716Z,9.43
2023-02-24T11:02:06.849Z,7.43
2023-02-24T11:04:54.095Z,8.48
2023-02-24T11:07:46.171Z,5.63
2023-02-24T11:10:32.489Z,7.75
2023-02-24T11:13:20.987Z,3.90
2023-02-24T11:16:10.108Z,5.72
2023-02-24T11:18:40.273Z,9.65
2023-02-24T11:21:10.912Z,7.03
2023-02-24T11:23:50.027Z,6.13
2023-02-24T11:26:18.632Z,9.25
2023-02-24T11:29:23.165Z,6.65
2023-02-24T11:32:17.305Z,8.07
2023-02-24T11:34:49.714Z,8.77
2023-02-24T11:37:41.867Z,7.13
2023-02-24T11:40:24.418Z,7.75
2023-02-24T11:43:26.351Z,7.72
2023-02-24T11:46:19.695Z,5.75
2023-02-24T11:48:58.350Z,6.18
2023-02-24T11:51:29.477Z,7.07
2023-02-24T11:54:13.176Z,7.32
2023-02-24T11:56:58.263Z,7.55
2023-02-24T11:59:44.373Z,4.93
2023-02-24T12:02:34.012Z,7.55
2023-02-24T12:05:15.734Z,8.82
2023-02-24T12:08:05.659Z,5.18
2023-02-24T12:10:36.015Z,5.60
2023-02-24T12:13:13.997Z,3.73
2023-02-24T12:16:03.105Z,9.43
2023-02-24T12:18:34.327Z,6.60
2023-02-24T12:21:05.684Z,3.45
2023-02-24T12:23:45.515Z,3.97
2023-02-24T12:26:24.519Z,3.70
2023-02-24T12:29:18.650Z,2.83
2023-02-24T12:31:53.389Z,6.32
2023-02-24T12:34:50.029Z,3.30
2023-02-24T12:37:28.893Z,3.53
2023-02-24T12:40:01.854Z,3.83
2023-02-24T12:42:52.415Z,1.95
2023-02-24T12:45:22.995Z,3.60
2023-02-24T12:48:04.995Z,2.50
2023-02-24T12:51:06.326Z,4.38
2023-02-24T12:53:48.283Z,2.53
2023-02-24T12:56:25.234Z,1.83
2023-02-24T12:58:59.828Z,3.05
2023-02-24T13:02:11.879Z,3.58
2023-02-24T13:05:10.188Z,1.65
2023-02-24T13:07:40.129Z,6.50
2023-02-24T13:10:26.808Z,6.82
2023-02-24T13:13:00.299Z,2.30
2023-02-24T13:15:31.223Z,1.75
2023-02-24T13:17:58.493Z,3.63
2023-02-24T13:20:29.875Z,2.88
2023-02-24T13:22:58.916Z,4.07
2023-02-24T13:25:36.995Z,2.30
2023-02-24T13:28:06.762Z,1.95
2023-02-24T13:30:42.519Z,2.45
2023-02-24T13:33:18.310Z,2.30
2023-02-24T13:35:46.955Z,2.38
2023-02-24T13:38:31.865Z,2.22
2023-02-24T13:41:29.336Z,2.22
2023-02-24T13:44:02.679Z,2.20
2023-02-24T13:46:49.359Z,2.33
2023-02-24T13:49:16.491Z,1.77
2023-02-24T13:51:59.317Z,4.70
2023-02-24T13:54:31.146Z,1.30
2023-02-24T13:57:25.531Z,1.30
2023-02-24T14:00:10.404Z,1.33
2023-02-24T14:02:44.110Z,1.27
2023-02-24T14:05:33.105Z,2.35
2023-02-24T14:08:01.034Z,1.38
2023-02-24T14:10:30.744Z,1.00
2023-02-24T14:13:16.894Z,2.77
2023-02-24T14:15:45.891Z,1.70
2023-02-24T14:18:39.347Z,1.20
2023-02-24T14:21:06.759Z,1.40
2023-02-24T14:23:34.642Z,4.40
2023-02-24T14:26:12.784Z,4.55
2023-02-24T14:28:44.200Z,1.55
2023-02-24T14:31:13.698Z,1.90
2023-02-24T14:33:45.851Z,2.20
2023-02-24T14:36:22.343Z,2.20
2023-02-24T14:39:14.673Z,2.20
2023-02-24T14:41:43.572Z,1.88
2023-02-24T14:44:26.413Z,3.13
2023-02-24T14:46:55.396Z,1.58
2023-02-24T14:49:30.974Z,2.85
2023-02-24T14:52:09.526Z,4.55
2023-02-24T14:54:45.205Z,4.22
2023-02-24T14:57:15.715Z,2.30
2023-02-24T14:59:47.334Z,1.88
2023-02-24T15:02:21.426Z,3.50
2023-02-24T15:04:48.484Z,2.38
2023-02-24T15:07:24.636Z,2.15
2023-02-24T15:09:53.801Z,2.20
2023-02-24T15:12:33.511Z,5.10
2023-02-24T15:15:05.790Z,2.55
2023-02-24T15:17:33.342Z,4.05
2023-02-24T15:20:00.079Z,2.07
2023-02-24T15:22:30.004Z,2.15
2023-02-24T15:25:15.739Z,3.22
2023-02-24T15:27:58.450Z,5.20
2023-02-24T15:30:26.879Z,1.40
2023-02-24T15:33:08.250Z,1.13
2023-02-24T15:35:38.314Z,3.03
2023-02-24T15:38:19.038Z,0.90
2023-02-24T15:40:52.393Z,1.38
2023-02-24T15:43:32.854Z,2.55
2023-02-24T15:45:59.598Z,2.00
2023-02-24T15:48:28.769Z,1.45
2023-02-24T15:51:04.569Z,1.10
2023-02-24T15:53:31.301Z,2.28
2023-02-24T15:56:00.748Z,2.70
2023-02-24T15:58:27.475Z,1.00
2023-02-24T16:00:54.338Z,5.63
2023-02-24T16:03:21.056Z,0.93
2023-02-24T16:05:50.865Z,1.42
2023-02-24T16:08:19.475Z,0.68
2023-02-24T16:10:46.875Z,1.67
2023-02-24T16:13:21.337Z,1.85
2023-02-24T16:15:48.447Z,1.13
2023-02-24T16:18:25.198Z,0.68
2023-02-24T16:20:56.499Z,1.70
2023-02-24T16:23:25.541Z,0.90
2023-02-24T16:25:57.698Z,0.60
2023-02-24T16:28:24.838Z,0.43
2023-02-24T16:30:55.434Z,0.57
2023-02-24T16:33:25.715Z,0.40
2023-02-24T16:35:54.084Z,1.27
2023-02-24T16:38:22.350Z,0.90
2023-02-24T16:40:50.700Z,0.75
2023-02-24T16:43:17.982Z,0.60
2023-02-24T16:45:45.608Z,2.00
2023-02-24T16:48:24.862Z,0.70
2023-02-24T16:50:52.059Z,0.80
2023-02-24T16:53:20.475Z,0.40
2023-02-24T16:55:47.759Z,0.95
2023-02-24T16:58:15.301Z,1.00
2023-02-24T17:00:43.851Z,1.50
2023-02-24T17:03:31.789Z,0.60
2023-02-24T17:05:58.891Z,3.53
2023-02-24T17:08:26.162Z,0.77
2023-02-24T17:10:53.372Z,1.00
2023-02-24T17:13:21.557Z,1.00
2023-02-24T17:15:55.273Z,0.60
2023-02-24T17:18:22.713Z,3.70
2023-02-24T17:20:50.167Z,1.30
2023-02-24T17:23:17.337Z,1.15
2023-02-24T17:25:44.875Z,0.70
2023-02-24T17:28:11.742Z,0.45
2023-02-24T17:30:39.534Z,0.30
2023-02-24T17:33:07.375Z,0.57
2023-02-24T17:35:34.100Z,0.50
2023-02-24T17:38:03.528Z,1.15
2023-02-24T17:40:30.368Z,0.73
2023-02-24T17:42:57.342Z,0.60
2023-02-24T17:45:24.689Z,0.30
2023-02-24T17:47:53.670Z,0.70
2023-02-24T17:50:20.405Z,0.70
2023-02-24T17:52:47.295Z,0.40
2023-02-24T17:55:13.965Z,0.85
2023-02-24T17:57:43.696Z,1.98
2023-02-24T18:00:15.205Z,1.38
2023-02-24T18:02:42.398Z,0.73
2023-02-24T18:05:10.223Z,0.65
2023-02-24T18:07:37.727Z,0.47
2023-02-24T18:10:05.237Z,0.73
2023-02-24T18:12:32.077Z,0.25
2023-02-24T18:15:07.722Z,0.35
2023-02-24T18:17:38.729Z,0.50
2023-02-24T18:20:07.697Z,0.40
2023-02-24T18:22:35.106Z,0.40
2023-02-24T18:25:01.999Z,0.25
2023-02-24T18:27:28.773Z,0.40
2023-02-24T18:30:00.836Z,0.38
2023-02-24T18:32:28.162Z,0.20
2023-02-24T18:34:54.958Z,0.40
2023-02-24T18:37:22.191Z,0.40
2023-02-24T18:39:49.009Z,0.52
2023-02-24T18:42:15.795Z,0.30
2023-02-24T18:44:42.561Z,0.30
2023-02-24T18:47:09.832Z,0.60
2023-02-24T18:49:37.292Z,0.50
2023-02-24T18:52:05.528Z,0.40
2023-02-24T18:54:34.136Z,2.00
2023-02-24T18:57:01.056Z,0.35
2023-02-24T18:59:27.861Z,0.50
2023-02-24T19:01:56.707Z,2.20
2023-02-24T19:04:24.159Z,0.90
2023-02-24T19:06:50.966Z,1.15
2023-02-24T19:09:21.566Z,0.60
2023-02-24T19:11:49.708Z,0.30
2023-02-24T19:14:16.691Z,0.50
2023-02-24T19:16:43.682Z,0.30
2023-02-24T19:19:17.038Z,1.20
2023-02-24T19:21:45.501Z,2.00
2023-02-24T19:24:14.080Z,0.50
2023-02-24T19:26:45.720Z,0.63
2023-02-24T19:29:12.442Z,0.40
2023-02-24T19:31:39.938Z,0.80
2023-02-24T19:34:13.124Z,2.20
2023-02-24T19:36:41.738Z,0.47
2023-02-24T19:39:14.720Z,1.00
2023-02-24T19:41:43.332Z,1.20
2023-02-24T19:44:10.818Z,0.80
2023-02-24T19:46:38.941Z,0.80
2023-02-24T19:49:06.387Z,0.75
2023-02-24T19:51:33.182Z,0.60
2023-02-24T19:54:03.318Z,0.50
2023-02-24T19:56:31.483Z,0.70
2023-02-24T19:59:00.270Z,0.28
2023-02-24T20:01:28.939Z,0.60
2023-02-24T20:03:59.009Z,0.85
2023-02-24T20:06:29.236Z,1.88
2023-02-24T20:08:57.768Z,0.55
2023-02-24T20:11:24.978Z,1.63
2023-02-24T20:13:52.978Z,0.38
2023-02-24T20:16:22.528Z,0.88
2023-02-24T20:18:49.360Z,1.90
2023-02-24T20:21:16.126Z,1.98
2023-02-24T20:23:43.407Z,0.65
2023-02-24T20:26:14.263Z,0.35
2023-02-24T20:28:40.956Z,0.68
2023-02-24T20:31:12.997Z,1.00
2023-02-24T20:33:40.835Z,0.65
2023-02-24T20:36:13.082Z,0.50
2023-02-24T20:38:40.250Z,0.75
2023-02-24T20:41:07.293Z,2.08
2023-02-24T20:43:34.344Z,1.67
2023-02-24T20:46:14.118Z,0.73
2023-02-24T20:48:43.797Z,0.80
2023-02-24T20:51:12.301Z,0.68
2023-02-24T20:53:54.757Z,1.05
2023-02-24T20:56:23.985Z,0.73
2023-02-24T20:58:53.093Z,2.00
2023-02-24T21:01:21.144Z,0.88
2023-02-24T21:03:51.014Z,0.88
2023-02-24T21:06:18.638Z,1.25
2023-02-24T21:08:45.940Z,1.53
2023-02-24T21:11:13.934Z,0.77
2023-02-24T21:13:46.218Z,1.08
2023-02-24T21:16:15.442Z,1.45
2023-02-24T21:18:44.393Z,1.23
2023-02-24T21:21:12.472Z,0.95
2023-02-24T21:23:39.778Z,0.82
2023-02-24T21:26:07.212Z,0.98
2023-02-24T21:28:34.279Z,1.10
2023-02-24T21:31:02.006Z,0.82
2023-02-24T21:33:28.767Z,0.85
2023-02-24T21:36:15.676Z,0.57
2023-02-24T21:38:49.824Z,1.80
2023-02-24T21:41:19.396Z,0.95
2023-02-24T21:43:46.790Z,2.30
2023-02-24T21:46:15.872Z,1.27
2023-02-24T21:48:43.083Z,0.70
2023-02-24T21:51:13.891Z,1.88
2023-02-24T21:53:43.492Z,0.88
2023-02-24T21:56:18.674Z,1.80
2023-02-24T21:58:51.641Z,0.85
2023-02-24T22:01:25.383Z,1.80
2023-02-24T22:03:57.694Z,0.73
2023-02-24T22:06:26.233Z,1.87
2023-02-24T22:08:54.671Z,0.70
2023-02-24T22:11:24.622Z,0.70
2023-02-24T22:13:56.497Z,1.60
2023-02-24T22:16:25.034Z,0.70
2023-02-24T22:18:53.237Z,1.40
2023-02-24T22:21:22.396Z,2.17
2023-02-24T22:23:51.618Z,0.40
2023-02-24T22:26:19.931Z,0.82
2023-02-24T22:28:47.943Z,1.77
2023-02-24T22:31:16.976Z,0.90
2023-02-24T22:33:44.650Z,0.40
2023-02-24T22:36:16.935Z,2.70
2023-02-24T22:38:45.616Z,0.50
2023-02-24T22:41:18.019Z,0.70
2023-02-24T22:43:45.152Z,0.70
2023-02-24T22:46:15.251Z,1.23
2023-02-24T22:48:43.406Z,1.20
2023-02-24T22:51:11.862Z,0.45
2023-02-24T22:53:40.863Z,0.40
2023-02-24T22:56:08.579Z,0.68
2023-02-24T22:58:35.312Z,0.35
2023-02-24T23:01:02.394Z,0.57
2023-02-24T23:03:33.455Z,0.50
2023-02-24T23:06:05.266Z,0.20
2023-02-24T23:08:34.121Z,0.63
2023-02-24T23:11:12.197Z,0.90
2023-02-24T23:13:40.106Z,0.47
2023-02-24T23:16:09.575Z,0.60
2023-02-24T23:18:36.972Z,0.50
2023-02-24T23:21:08.066Z,0.57
2023-02-24T23:23:35.773Z,0.70
2023-02-24T23:26:08.558Z,0.80
2023-02-24T23:28:35.231Z,0.60
2023-02-24T23:31:03.166Z,0.43
2023-02-24T23:33:30.056Z,0.35
2023-02-24T23:36:01.524Z,0.40
2023-02-24T23:38:28.199Z,0.40
2023-02-24T23:40:54.839Z,0.23
2023-02-24T23:43:23.827Z,2.00
2023-02-24T23:45:50.517Z,0.30
2023-02-24T23:48:17.484Z,0.70
2023-02-24T23:50:47.024Z,0.20
2023-02-24T23:53:13.707Z,2.30
2023-02-24T23:55:40.994Z,0.50
2023-02-24T23:58:10.290Z,0.65
